Time;durP1;ratioP1;P1;durP2;ratioP2;P2;SDS_P1;SDS_P2;PMS_P1;PMS_P2;Temp;Humidity;BMP_temperature;BMP_pressure;BME280_temperature;BME280_humidity;BME280_pressure;Samples;Min_cycle;Max_cycle;Signal;HPM_P1;HPM_P2
2023/06/27 00:00:11;;;;;;;4.30;1.70;;;;;;;20.20;100.00;100223.22;4984017;28;20049;-68
2023/06/27 00:02:37;;;;;;;3.17;1.98;;;;;;;20.32;100.00;100230.72;4988212;28;20049;-68
2023/06/27 00:05:03;;;;;;;6.78;2.92;;;;;;;20.57;100.00;100297.19;4987204;28;20029;-68
2023/06/27 00:07:29;;;;;;;2.63;1.55;;;;;;;20.31;100.00;100298.25;4971111;28;20046;-69
2023/06/27 00:09:55;;;;;;;3.47;2.25;;;;;;;19.98;100.00;100233.94;4976973;28;20061;-68
2023/06/27 00:12:21;;;;;;;3.53;2.05;;;;;;;20.42;100.00;100285.34;4988524;28;20666;-68
2023/06/27 00:14:47;;;;;;;3.95;1.55;;;;;;;19.84;100.00;100218.53;4985590;28;20047;-68
2023/06/27 00:17:14;;;;;;;2.40;1.65;;;;;;;19.76;100.00;100216.19;4988632;28;20038;-68
2023/06/27 00:19:40;;;;;;;5.30;2.90;;;;;;;20.24;100.00;100302.97;4984069;28;20050;-68
2023/06/27 00:22:09;;;;;;;4.18;2.25;;;;;;;20.38;100.00;100280.22;4984262;28;20422;-69
2023/06/27 00:24:38;;;;;;;3.92;2.00;;;;;;;20.44;100.00;100290.63;4983549;28;20046;-68
2023/06/27 00:27:05;;;;;;;2.33;1.50;;;;;;;19.89;100.00;100242.31;4983306;28;20046;-68
2023/06/27 00:29:32;;;;;;;5.40;1.88;;;;;;;20.35;100.00;100299.00;4987769;28;20042;-68
2023/06/27 00:31:57;;;;;;;2.03;1.08;;;;;;;20.00;100.00;100206.31;4988159;28;20026;-68
2023/06/27 00:34:23;;;;;;;4.70;2.40;;;;;;;20.33;100.00;100288.41;4983180;28;20866;-68
2023/06/27 00:36:48;;;;;;;3.03;1.75;;;;;;;20.02;100.00;100268.38;4985692;28;20054;-68
2023/06/27 00:39:14;;;;;;;4.35;2.33;;;;;;;20.18;100.00;100297.03;4978579;28;20053;-68
2023/06/27 00:41:39;;;;;;;4.45;2.42;;;;;;;20.41;100.00;100290.75;4986635;28;20061;-68
2023/06/27 00:44:08;;;;;;;3.40;2.35;;;;;;;20.01;100.00;100205.38;4985447;28;20783;-68
2023/06/27 00:46:37;;;;;;;2.78;1.60;;;;;;;20.49;100.00;100293.97;4987680;28;20378;-68
2023/06/27 00:49:06;;;;;;;3.70;1.80;;;;;;;20.33;100.00;100284.88;4988051;28;20160;-68
2023/06/27 00:51:33;;;;;;;6.22;2.33;;;;;;;19.58;100.00;100195.63;4983803;28;20043;-68
2023/06/27 00:53:58;;;;;;;4.18;1.90;;;;;;;19.48;100.00;100199.56;4954035;28;20050;-68
2023/06/27 00:56:26;;;;;;;3.15;2.08;;;;;;;19.67;100.00;100253.81;4987121;28;20042;-68
2023/06/27 00:58:53;;;;;;;9.68;3.10;;;;;;;19.54;100.00;100233.94;4988404;28;20033;-68
2023/06/27 01:01:19;;;;;;;4.78;2.33;;;;;;;19.38;100.00;100209.72;4967838;28;20046;-68
2023/06/27 01:03:45;;;;;;;2.67;1.38;;;;;;;19.33;100.00;100207.22;4970064;28;20042;-68
2023/06/27 01:06:34;;;;;;;4.28;2.22;;;;;;;19.35;100.00;100204.53;4985234;28;20118;-68
2023/06/27 01:09:04;;;;;;;2.92;1.92;;;;;;;19.99;100.00;100299.59;4987969;28;20386;-67
2023/06/27 01:11:39;;;;;;;4.50;2.85;;;;;;;20.10;100.00;100289.38;4986747;28;20038;-67
2023/06/27 01:14:06;;;;;;;4.72;2.55;;;;;;;19.79;100.00;100228.53;4988160;28;20076;-68
2023/06/27 01:16:35;;;;;;;9.23;2.67;;;;;;;20.09;100.00;100292.97;4987938;28;20058;-68
2023/06/27 01:19:01;;;;;;;4.15;1.90;;;;;;;20.00;100.00;100288.03;4978300;28;20081;-68
2023/06/27 01:21:28;;;;;;;3.03;1.88;;;;;;;19.92;100.00;100298.97;4988014;28;20101;-68
2023/06/27 01:24:06;;;;;;;5.28;2.50;;;;;;;19.34;100.00;100206.31;4987586;28;20080;-68
2023/06/27 01:26:31;;;;;;;3.63;2.33;;;;;;;19.72;100.00;100291.78;4986719;28;20034;-68
2023/06/27 01:28:57;;;;;;;4.85;2.15;;;;;;;19.22;100.00;100216.56;4983975;28;20037;-68
2023/06/27 01:31:31;;;;;;;3.72;2.28;;;;;;;19.64;100.00;100304.50;4987346;28;20117;-67
2023/06/27 01:34:02;;;;;;;7.65;2.63;;;;;;;19.15;100.00;100239.88;4979975;28;20050;-68
2023/06/27 01:36:45;;;;;;;4.32;2.00;;;;;;;19.55;100.00;100312.84;4986647;28;20042;-68
2023/06/27 01:39:17;;;;;;;4.03;2.83;;;;;;;18.90;100.00;100206.25;4983712;28;20047;-67
2023/06/27 01:41:47;;;;;;;4.43;2.65;;;;;;;19.02;100.00;100215.53;4986979;28;20547;-67
2023/06/27 01:44:15;;;;;;;4.47;2.33;;;;;;;19.01;100.00;100212.94;4988300;28;20088;-68
2023/06/27 01:46:42;;;;;;;5.68;2.65;;;;;;;19.40;100.00;100283.22;4984694;28;20086;-68
2023/06/27 01:49:09;;;;;;;4.53;2.33;;;;;;;19.43;100.00;100266.28;4984299;28;20061;-68
2023/06/27 01:51:35;;;;;;;11.18;1.98;;;;;;;19.53;100.00;100288.97;4983311;28;20074;-68
2023/06/27 01:54:00;;;;;;;3.60;1.80;;;;;;;19.54;100.00;100282.69;4981295;28;20085;-68
2023/06/27 01:56:27;;;;;;;6.30;2.38;;;;;;;19.08;100.00;100204.69;4985858;28;20489;-68
2023/06/27 01:58:53;;;;;;;6.80;2.28;;;;;;;19.65;100.00;100295.59;4986604;28;20057;-67
2023/06/27 02:01:18;;;;;;;4.13;2.22;;;;;;;19.53;100.00;100272.13;4961287;28;20053;-68
2023/06/27 02:03:44;;;;;;;4.10;2.42;;;;;;;19.52;100.00;100287.22;4981079;28;20081;-67
2023/06/27 02:06:09;;;;;;;4.10;2.20;;;;;;;18.90;100.00;100205.38;4986996;28;20053;-67
2023/06/27 02:08:35;;;;;;;3.53;1.85;;;;;;;19.33;100.00;100294.19;4987106;28;20061;-68
2023/06/27 02:11:00;;;;;;;3.97;2.25;;;;;;;19.34;100.00;100278.16;4987804;28;20398;-68
2023/06/27 02:13:26;;;;;;;4.78;2.13;;;;;;;18.92;100.00;100193.75;4987103;28;20410;-68
2023/06/27 02:15:51;;;;;;;3.67;2.13;;;;;;;19.56;100.00;100280.84;4982216;28;20050;-68
2023/06/27 02:18:17;;;;;;;4.18;2.40;;;;;;;18.98;100.00;100193.50;4981860;28;20105;-68
2023/06/27 02:20:42;;;;;;;4.40;2.60;;;;;;;19.07;100.00;100196.75;4986874;28;20070;-67
2023/06/27 02:23:07;;;;;;;7.03;3.58;;;;;;;19.09;100.00;100186.94;4987577;28;20539;-67
2023/06/27 02:25:33;;;;;;;5.70;2.05;;;;;;;18.93;100.00;100179.53;4986200;28;20472;-68
2023/06/27 02:27:58;;;;;;;4.43;3.50;;;;;;;19.26;100.00;100266.06;4984021;28;20125;-67
2023/06/27 02:30:24;;;;;;;6.63;2.78;;;;;;;19.37;100.00;100291.34;4976334;28;20118;-68
2023/06/27 02:32:49;;;;;;;3.65;2.25;;;;;;;19.19;100.00;100287.56;4986650;28;20401;-68
2023/06/27 02:35:16;;;;;;;4.47;2.28;;;;;;;19.23;100.00;100303.44;4986525;28;20038;-68
2023/06/27 02:37:42;;;;;;;4.88;2.47;;;;;;;18.88;100.00;100239.13;4984699;28;20046;-68
2023/06/27 02:40:08;;;;;;;9.57;2.25;;;;;;;19.09;100.00;100294.19;4986736;28;20124;-68
2023/06/27 02:42:34;;;;;;;5.78;2.90;;;;;;;19.18;100.00;100314.25;4985888;28;20050;-69
2023/06/27 02:44:59;;;;;;;4.75;2.20;;;;;;;19.16;100.00;100313.44;4986614;28;20068;-68
2023/06/27 02:47:25;;;;;;;5.00;2.05;;;;;;;19.16;100.00;100313.44;4969688;28;20046;-68
2023/06/27 02:49:50;;;;;;;5.38;2.78;;;;;;;18.84;100.00;100232.19;4990674;28;20034;-68
2023/06/27 02:52:16;;;;;;;5.20;2.72;;;;;;;19.30;100.00;100305.81;4989609;28;20042;-68
2023/06/27 02:54:41;;;;;;;3.63;2.03;;;;;;;19.35;100.00;100300.31;4989677;28;20042;-68
2023/06/27 02:57:07;;;;;;;4.45;3.10;;;;;;;19.37;100.00;100299.31;4984053;28;20042;-68
2023/06/27 02:59:32;;;;;;;3.65;2.10;;;;;;;19.08;100.00;100247.25;4985304;28;20062;-68
2023/06/27 03:01:58;;;;;;;6.47;2.92;;;;;;;19.36;100.00;100296.72;4990347;28;20497;-68
2023/06/27 03:04:24;;;;;;;4.28;1.98;;;;;;;18.77;100.00;100204.97;4989425;28;20042;-68
2023/06/27 03:06:50;;;;;;;5.38;2.95;;;;;;;18.72;100.00;100212.22;4989834;28;20046;-68
2023/06/27 03:09:18;;;;;;;4.13;2.28;;;;;;;19.16;100.00;100310.78;4989651;28;20050;-68
2023/06/27 03:11:44;;;;;;;4.10;1.95;;;;;;;18.66;100.00;100215.97;4982537;28;20577;-68
2023/06/27 03:14:09;;;;;;;2.92;1.63;;;;;;;18.98;100.00;100281.25;4987213;28;20867;-68
2023/06/27 03:16:35;;;;;;;5.45;3.20;;;;;;;18.94;100.00;100278.78;4988983;28;20057;-68
2023/06/27 03:19:00;;;;;;;7.32;3.30;;;;;;;18.87;100.00;100280.81;4987727;28;20865;-67
2023/06/27 03:21:26;;;;;;;7.65;3.33;;;;;;;19.09;100.00;100312.78;4988673;28;20066;-68
2023/06/27 03:23:51;;;;;;;4.82;2.53;;;;;;;19.06;100.00;100315.56;4985106;28;20634;-68
2023/06/27 03:26:16;;;;;;;3.40;1.80;;;;;;;18.55;100.00;100216.34;4977409;28;20394;-67
2023/06/27 03:28:42;;;;;;;5.88;2.50;;;;;;;19.15;100.00;100322.31;4985970;28;20073;-67
2023/06/27 03:31:08;;;;;;;4.13;2.22;;;;;;;19.02;100.00;100290.00;4988297;28;20112;-66
2023/06/27 03:33:33;;;;;;;4.75;2.55;;;;;;;18.69;100.00;100222.97;4988183;28;20513;-69
2023/06/27 03:35:59;;;;;;;4.13;2.85;;;;;;;19.22;100.00;100310.53;4989332;28;20402;-67
2023/06/27 03:38:24;;;;;;;4.95;2.80;;;;;;;19.22;100.00;100315.84;4988349;28;20482;-67
2023/06/27 03:40:50;;;;;;;3.58;2.30;;;;;;;19.22;100.00;100299.03;4978176;28;20143;-68
2023/06/27 03:43:15;;;;;;;5.20;3.00;;;;;;;18.02;100.00;100106.72;4988016;28;20054;-68
2023/06/27 03:45:41;;;;;;;4.82;2.75;;;;;;;19.15;100.00;100301.03;4988670;28;20449;-68
2023/06/27 03:48:07;;;;;;;4.88;2.33;;;;;;;19.31;100.00;100309.31;4980161;28;20039;-67
2023/06/27 03:50:33;;;;;;;5.88;2.15;;;;;;;19.27;100.00;100292.63;4989044;28;20129;-67
2023/06/27 03:53:01;;;;;;;3.78;2.38;;;;;;;18.98;100.00;100214.78;4988293;28;20019;-67
2023/06/27 03:55:26;;;;;;;3.90;2.28;;;;;;;19.29;100.00;100232.25;4985467;28;20069;-67
2023/06/27 03:57:52;;;;;;;9.02;2.55;;;;;;;19.75;100.00;100291.66;4986306;28;20401;-68
2023/06/27 04:00:17;;;;;;;4.68;2.13;;;;;;;19.52;100.00;100249.09;4986971;28;20056;-68
2023/06/27 04:02:43;;;;;;;5.43;3.10;;;;;;;19.86;100.00;100301.03;4988128;28;20097;-68
2023/06/27 04:05:09;;;;;;;4.82;2.33;;;;;;;19.45;100.00;100236.94;4987165;28;20042;-68
2023/06/27 04:07:34;;;;;;;4.80;2.70;;;;;;;19.94;100.00;100297.13;4979414;28;20047;-68
2023/06/27 04:10:00;;;;;;;4.78;2.33;;;;;;;19.34;100.00;100192.16;4979920;28;20050;-68
2023/06/27 04:12:25;;;;;;;3.67;1.65;;;;;;;19.96;100.00;100303.25;4982338;28;20082;-68
2023/06/27 04:14:51;;;;;;;6.68;3.13;;;;;;;19.46;100.00;100209.44;4987138;28;20046;-68
2023/06/27 04:17:16;;;;;;;7.90;2.72;;;;;;;19.70;100.00;100235.06;4986855;28;20034;-67
2023/06/27 04:19:41;;;;;;;5.45;2.80;;;;;;;19.74;100.00;100231.38;4985883;28;20038;-67
2023/06/27 04:22:07;;;;;;;4.60;2.13;;;;;;;19.73;100.00;100200.34;4985773;28;20105;-67
2023/06/27 04:24:32;;;;;;;3.30;2.00;;;;;;;19.87;100.00;100205.09;4984726;28;20049;-67
2023/06/27 04:26:58;;;;;;;5.50;2.25;;;;;;;20.53;100.00;100306.19;4985548;28;20811;-67
2023/06/27 04:29:24;;;;;;;4.63;2.35;;;;;;;20.57;100.00;100317.66;4987290;28;20030;-67
2023/06/27 04:31:50;;;;;;;7.22;2.75;;;;;;;20.09;100.00;100206.84;4987213;28;20042;-68
2023/06/27 04:34:15;;;;;;;5.50;2.80;;;;;;;20.73;100.00;100300.03;4985390;28;20058;-68
2023/06/27 04:36:41;;;;;;;4.45;2.85;;;;;;;20.26;100.00;100216.78;4978993;28;20514;-68
2023/06/27 04:39:10;;;;;;;6.05;3.03;;;;;;;20.77;100.00;100311.47;4986580;28;20050;-68
2023/06/27 04:41:35;;;;;;;6.97;3.97;;;;;;;20.92;100.00;100312.56;4986400;28;20046;-68
2023/06/27 04:44:01;;;;;;;5.20;2.67;;;;;;;20.92;100.00;100285.91;4987049;28;20057;-68
2023/06/27 04:46:28;;;;;;;4.55;2.47;;;;;;;20.99;100.00;100293.53;4980789;28;20054;-68
2023/06/27 04:48:57;;;;;;;3.75;2.50;;;;;;;20.66;100.00;100216.78;4983147;28;20042;-68
2023/06/27 04:51:27;;;;;;;4.45;2.78;;;;;;;20.71;100.00;100208.56;4985028;28;20517;-68
2023/06/27 04:53:53;;;;;;;5.93;2.30;;;;;;;20.85;100.00;100216.81;4967978;28;20129;-68
2023/06/27 04:56:19;;;;;;;7.10;3.97;;;;;;;20.96;100.00;100227.00;4987168;28;20128;-68
2023/06/27 04:58:44;;;;;;;4.32;2.30;;;;;;;21.60;100.00;100315.72;4986196;28;20082;-68
2023/06/27 05:01:10;;;;;;;4.40;2.08;;;;;;;21.75;100.00;100303.44;4986248;28;20046;-67
2023/06/27 05:03:41;;;;;;;5.50;2.30;;;;;;;21.78;100.00;100282.78;4986484;28;20046;-67
2023/06/27 05:06:07;;;;;;;4.47;1.88;;;;;;;21.80;100.00;100237.31;4984613;28;20039;-67
2023/06/27 05:08:34;;;;;;;7.80;2.45;;;;;;;22.64;100.00;100323.97;4986210;28;20058;-68
2023/06/27 05:11:00;;;;;;;3.08;1.95;;;;;;;21.81;100.00;100118.81;4967330;28;20049;-68
2023/06/27 05:13:26;;;;;;;3.42;1.65;;;;;;;22.97;100.00;100234.84;4984166;28;20050;-68
2023/06/27 05:15:51;;;;;;;4.40;2.60;;;;;;;23.55;100.00;100313.78;4986733;28;20425;-67
2023/06/27 05:18:16;;;;;;;5.00;2.33;;;;;;;23.92;100.00;100327.84;4983696;28;20050;-67
2023/06/27 05:20:43;;;;;;;4.10;2.42;;;;;;;24.47;100.00;100313.94;4985844;28;20042;-68
2023/06/27 05:23:09;;;;;;;6.38;1.88;;;;;;;24.52;100.00;100332.44;4969477;28;20026;-68
2023/06/27 05:25:35;;;;;;;9.60;3.20;;;;;;;24.82;100.00;100301.06;4985978;28;20137;-68
2023/06/27 05:28:01;;;;;;;4.72;2.42;;;;;;;25.30;100.00;100319.63;4982156;28;20427;-68
2023/06/27 05:30:27;;;;;;;3.72;2.30;;;;;;;25.52;100.00;100313.78;4984986;28;20464;-67
2023/06/27 05:32:54;;;;;;;4.40;2.05;;;;;;;25.52;100.00;100284.22;4983534;28;20061;-67
2023/06/27 05:35:20;;;;;;;3.22;2.05;;;;;;;25.64;100.00;100251.16;4984430;28;20531;-67
2023/06/27 05:37:45;;;;;;;4.43;2.33;;;;;;;26.37;100.00;100329.78;4980658;28;20081;-67
2023/06/27 05:40:11;;;;;;;7.70;3.92;;;;;;;26.29;100.00;100292.59;4982033;28;20038;-68
2023/06/27 05:42:37;;;;;;;5.28;3.38;;;;;;;26.27;100.00;100260.44;4981186;28;20053;-68
2023/06/27 05:45:03;;;;;;;4.40;2.17;;;;;;;26.44;100.00;100264.66;4982254;28;20274;-67
2023/06/27 05:47:28;;;;;;;8.70;3.22;;;;;;;27.02;100.00;100328.91;4960992;28;20468;-67
2023/06/27 05:49:54;;;;;;;5.22;3.03;;;;;;;27.23;100.00;100335.53;4981850;28;20171;-69
2023/06/27 05:52:19;;;;;;;8.85;3.53;;;;;;;27.26;100.00;100338.00;4964388;28;20042;-68
2023/06/27 05:54:45;;;;;;;3.35;2.22;;;;;;;27.21;100.00;100272.81;4981483;28;20070;-69
2023/06/27 05:57:10;;;;;;;5.28;2.40;;;;;;;27.43;100.00;100334.09;4949128;28;20166;-67
2023/06/27 05:59:36;;;;;;;5.00;2.83;;;;;;;27.51;100.00;100337.13;4984552;28;20867;-67
2023/06/27 06:02:02;;;;;;;5.03;2.53;;;;;;;26.22;100.00;100318.19;4968606;28;20133;-67
2023/06/27 06:04:28;;;;;;;4.03;2.03;;;;;;;26.66;100.00;100268.59;4982685;28;20039;-68
2023/06/27 06:06:53;;;;;;;3.88;1.77;;;;;;;26.91;100.00;100257.84;4985104;28;20046;-68
2023/06/27 06:09:19;;;;;;;4.05;2.13;;;;;;;26.95;100.00;100306.97;4983253;28;20057;-68
2023/06/27 06:11:44;;;;;;;4.45;2.55;;;;;;;27.26;100.00;100285.97;4984743;28;20046;-68
2023/06/27 06:14:09;;;;;;;4.80;2.28;;;;;;;27.56;100.00;100323.31;4983028;28;20113;-68
2023/06/27 06:16:35;;;;;;;4.18;2.10;;;;;;;27.37;100.00;100267.19;4985152;28;20098;-68
2023/06/27 06:19:02;;;;;;;3.25;2.25;;;;;;;27.80;100.00;100331.44;4964787;28;20453;-68
2023/06/27 06:21:28;;;;;;;4.18;2.67;;;;;;;26.99;100.00;100248.34;4986364;28;20152;-68
2023/06/27 06:23:53;;;;;;;3.13;1.83;;;;;;;27.15;100.00;100257.06;4988363;28;20054;-67
2023/06/27 06:26:19;;;;;;;7.10;3.42;;;;;;;27.32;100.00;100264.84;4988658;28;20042;-68
2023/06/27 06:28:44;;;;;;;5.93;2.83;;;;;;;27.27;100.00;100274.19;4985021;28;20050;-68
2023/06/27 06:31:11;;;;;;;5.53;3.25;;;;;;;27.25;100.00;100241.97;4988968;28;20101;-68
2023/06/27 06:33:38;;;;;;;6.63;3.25;;;;;;;27.45;100.00;100277.41;4989003;28;20057;-68
2023/06/27 06:36:04;;;;;;;4.30;2.05;;;;;;;27.28;100.00;100292.09;4989379;28;20073;-68
2023/06/27 06:38:29;;;;;;;5.43;3.42;;;;;;;27.00;100.00;100244.69;4969329;28;20030;-68
2023/06/27 06:40:55;;;;;;;3.60;1.67;;;;;;;27.68;100.00;100313.47;4989947;28;20034;-68
2023/06/27 06:43:26;;;;;;;4.65;2.35;;;;;;;27.74;100.00;100319.25;4985388;28;20053;-68
2023/06/27 06:45:52;;;;;;;5.38;2.75;;;;;;;27.63;100.00;100313.81;4982621;28;20119;-68
2023/06/27 06:48:19;;;;;;;7.75;2.70;;;;;;;27.86;100.00;100314.84;4976332;28;20057;-68
2023/06/27 06:50:45;;;;;;;4.43;2.42;;;;;;;27.85;100.00;100309.56;4989806;28;20042;-68
2023/06/27 06:53:11;;;;;;;8.90;3.47;;;;;;;27.87;100.00;100292.28;4981344;28;20035;-68
2023/06/27 06:55:36;;;;;;;6.53;3.60;;;;;;;26.96;100.00;100314.06;4988806;28;20089;-68
2023/06/27 06:58:02;;;;;;;4.65;2.42;;;;;;;26.91;100.00;100240.81;4989202;28;20088;-68
2023/06/27 07:00:27;;;;;;;5.88;2.65;;;;;;;28.09;100.00;100317.66;4988718;28;20548;-68
2023/06/27 07:02:54;;;;;;;4.03;2.15;;;;;;;28.00;100.00;100300.31;4988557;28;20418;-67
2023/06/27 07:05:19;;;;;;;4.00;2.83;;;;;;;27.70;100.00;100300.75;4988658;28;20038;-68
2023/06/27 07:07:45;;;;;;;3.40;1.80;;;;;;;26.48;100.00;100328.09;4981651;28;20037;-68
2023/06/27 07:10:10;;;;;;;5.57;2.85;;;;;;;27.27;100.00;100309.22;4988225;28;20063;-68
2023/06/27 07:12:36;;;;;;;7.93;2.35;;;;;;;27.91;100.00;100318.06;4987294;28;20046;-68
2023/06/27 07:15:01;;;;;;;3.80;2.25;;;;;;;27.00;97.27;100259.03;4987793;28;20085;-68
2023/06/27 07:17:27;;;;;;;5.28;2.10;;;;;;;27.79;96.80;100295.53;4987950;28;20068;-67
2023/06/27 07:19:53;;;;;;;3.03;1.67;;;;;;;27.99;94.04;100310.25;4988162;28;20081;-69
2023/06/27 07:22:18;;;;;;;2.85;1.80;;;;;;;27.19;75.77;100238.84;4966278;28;20078;-68
2023/06/27 07:24:44;;;;;;;3.60;1.30;;;;;;;27.22;73.76;100303.31;4982540;28;20482;-68
2023/06/27 07:27:09;;;;;;;4.70;2.50;;;;;;;27.35;65.03;100323.03;4988032;28;20054;-68
2023/06/27 07:29:36;;;;;;;4.03;2.50;;;;;;;27.66;75.89;100320.81;4988357;28;20587;-68
2023/06/27 07:32:01;;;;;;;3.83;2.08;;;;;;;27.40;78.26;100326.25;4989272;28;20524;-68
2023/06/27 07:34:27;;;;;;;10.25;2.10;;;;;;;27.74;78.95;100329.19;4987737;28;20046;-69
2023/06/27 07:36:52;;;;;;;4.45;2.15;;;;;;;27.80;82.58;100320.66;4988477;28;20707;-68
2023/06/27 07:39:18;;;;;;;3.47;2.20;;;;;;;27.56;74.99;100229.81;4988429;28;20061;-68
2023/06/27 07:41:43;;;;;;;4.65;1.80;;;;;;;28.09;76.43;100325.75;4988577;28;20305;-68
2023/06/27 07:44:09;;;;;;;3.03;1.80;;;;;;;27.71;68.66;100311.41;4989431;28;20033;-68
2023/06/27 07:46:34;;;;;;;3.45;1.90;;;;;;;28.09;67.95;100315.81;4988653;28;20038;-68
2023/06/27 07:49:00;;;;;;;2.47;1.20;;;;;;;28.29;73.36;100294.56;4988378;28;20048;-67
2023/06/27 07:51:26;;;;;;;4.70;2.17;;;;;;;28.42;67.27;100320.53;4987175;28;20050;-67
2023/06/27 07:53:52;;;;;;;2.67;1.38;;;;;;;27.89;61.25;100284.09;4983779;28;20035;-68
2023/06/27 07:56:19;;;;;;;4.38;2.78;;;;;;;28.28;66.75;100247.81;4986124;28;20050;-68
2023/06/27 07:58:44;;;;;;;2.78;1.85;;;;;;;28.45;67.80;100248.34;4985840;28;20064;-69
2023/06/27 08:01:10;;;;;;;1.55;1.08;;;;;;;27.47;65.79;100334.75;4987930;28;21210;-69
2023/06/27 08:03:36;;;;;;;2.22;1.30;;;;;;;28.30;77.73;100312.47;4984080;28;20038;-68
2023/06/27 08:06:05;;;;;;;1.83;1.17;;;;;;;28.52;70.73;100292.84;4985230;28;20513;-68
2023/06/27 08:08:31;;;;;;;4.30;2.45;;;;;;;29.00;67.98;100308.91;4985918;28;20034;-68
2023/06/27 08:10:56;;;;;;;2.72;1.45;;;;;;;29.11;69.65;100311.63;4983230;28;20349;-68
2023/06/27 08:13:22;;;;;;;3.40;1.75;;;;;;;29.15;65.56;100296.91;4982287;28;20516;-69
2023/06/27 08:15:48;;;;;;;9.10;1.52;;;;;;;29.21;64.59;100293.69;4984039;28;20121;-69
2023/06/27 08:18:13;;;;;;;2.88;1.77;;;;;;;28.38;61.60;100310.94;4984221;28;20046;-68
2023/06/27 08:20:39;;;;;;;6.10;2.30;;;;;;;29.08;62.61;100322.69;4982405;28;20116;-70
2023/06/27 08:23:05;;;;;;;3.70;1.67;;;;;;;29.12;61.04;100321.44;4989022;28;20049;-68
2023/06/27 08:25:30;;;;;;;3.30;1.88;;;;;;;29.24;56.95;100317.81;4984957;28;20098;-68
2023/06/27 08:27:56;;;;;;;5.82;2.33;;;;;;;29.05;57.66;100247.22;4986262;28;20089;-68
2023/06/27 08:30:21;;;;;;;4.15;1.45;;;;;;;29.91;58.98;100318.72;4982623;28;20050;-68
2023/06/27 08:32:47;;;;;;;3.47;1.88;;;;;;;28.05;56.65;100219.91;4986158;28;20046;-68
2023/06/27 08:35:12;;;;;;;2.33;1.10;;;;;;;29.21;61.46;100211.75;4984624;28;20034;-68
2023/06/27 08:37:39;;;;;;;2.63;1.65;;;;;;;29.69;56.36;100295.31;4982697;28;20043;-68
2023/06/27 08:40:05;;;;;;;2.78;1.80;;;;;;;29.76;56.51;100274.00;4986475;28;20042;-68
2023/06/27 08:42:32;;;;;;;3.45;1.75;;;;;;;29.93;53.03;100303.22;4985425;28;20100;-67
2023/06/27 08:45:01;;;;;;;4.07;2.33;;;;;;;29.12;56.61;100247.63;4984595;28;20054;-67
2023/06/27 08:47:29;;;;;;;2.70;1.20;;;;;;;29.03;54.10;100216.78;4987105;28;20478;-67
2023/06/27 08:50:03;;;;;;;4.13;1.80;;;;;;;28.68;52.56;100217.78;4994449;28;20034;-68
2023/06/27 08:52:35;;;;;;;2.83;1.55;;;;;;;30.17;55.12;100277.81;5005895;28;20049;-68
2023/06/27 08:55:04;;;;;;;2.55;1.15;;;;;;;29.90;52.33;100287.25;5005208;28;20112;-67
2023/06/27 08:57:32;;;;;;;4.38;2.53;;;;;;;30.79;52.24;100276.13;5004501;28;20125;-68
2023/06/27 09:00:04;;;;;;;5.70;1.70;;;;;;;30.52;49.28;100214.41;5005507;28;20084;-68
2023/06/27 09:02:31;;;;;;;3.15;1.70;;;;;;;31.15;51.15;100290.19;5002111;28;20027;-68
2023/06/27 09:04:58;;;;;;;4.35;2.33;;;;;;;30.68;47.42;100291.47;5003714;28;20034;-68
2023/06/27 09:07:24;;;;;;;2.90;1.58;;;;;;;30.24;47.89;100231.13;4987945;28;20081;-68
2023/06/27 09:09:50;;;;;;;4.93;2.17;;;;;;;31.08;46.73;100269.03;5001964;28;20053;-67
2023/06/27 09:12:16;;;;;;;3.10;1.45;;;;;;;31.46;46.87;100280.19;5002277;28;20609;-68
2023/06/27 09:14:41;;;;;;;4.55;2.65;;;;;;;31.24;45.08;100262.28;5005541;28;20037;-68
2023/06/27 09:17:08;;;;;;;4.88;2.85;;;;;;;31.44;44.69;100208.97;5003638;28;20120;-67
2023/06/27 09:19:33;;;;;;;4.53;2.25;;;;;;;32.14;45.54;100274.91;4985519;28;20100;-67
2023/06/27 09:22:00;;;;;;;7.85;2.55;;;;;;;31.47;42.63;100214.97;5004618;28;20041;-67
2023/06/27 09:24:27;;;;;;;2.40;1.60;;;;;;;31.30;44.38;100199.34;5004941;28;20046;-67
2023/06/27 09:26:52;;;;;;;3.70;2.10;;;;;;;31.71;47.66;100282.41;5003626;28;20080;-67
2023/06/27 09:29:19;;;;;;;3.08;1.60;;;;;;;32.07;45.08;100255.63;5005674;28;20029;-67
2023/06/27 09:31:45;;;;;;;8.90;2.17;;;;;;;32.80;44.74;100283.19;4998133;28;20200;-67
2023/06/27 09:34:10;;;;;;;6.13;2.25;;;;;;;31.93;46.18;100273.16;5003543;28;20549;-67
2023/06/27 09:36:40;;;;;;;5.38;3.53;;;;;;;31.96;45.92;100262.06;5004645;28;20066;-67
2023/06/27 09:39:08;;;;;;;2.50;1.65;;;;;;;31.57;43.82;100212.28;5004831;28;20557;-67
2023/06/27 09:41:49;;;;;;;2.47;1.67;;;;;;;32.49;46.19;100271.59;5004746;28;20131;-68
2023/06/27 09:44:16;;;;;;;5.97;3.05;;;;;;;32.23;45.36;100205.31;5003429;28;20030;-68
2023/06/27 09:46:43;;;;;;;4.38;2.42;;;;;;;32.98;45.10;100271.53;4996722;28;20046;-68
2023/06/27 09:49:09;;;;;;;5.43;2.22;;;;;;;31.63;44.47;100210.84;4984632;28;20078;-68
2023/06/27 09:51:36;;;;;;;4.63;2.28;;;;;;;32.93;45.06;100263.81;4983598;28;20077;-68
2023/06/27 09:54:02;;;;;;;4.07;1.98;;;;;;;32.87;43.83;100256.22;4980596;28;20059;-68
2023/06/27 09:56:32;;;;;;;3.35;1.75;;;;;;;29.61;48.67;100258.00;4983470;28;20078;-68
2023/06/27 09:59:10;;;;;;;3.17;1.77;;;;;;;31.77;48.54;100267.41;4987360;28;20042;-68
2023/06/27 10:01:37;;;;;;;3.20;1.63;;;;;;;31.89;45.80;100260.88;4982387;28;20054;-68
2023/06/27 10:04:04;;;;;;;3.05;2.38;;;;;;;31.66;47.60;100268.41;4985910;28;20054;-69
2023/06/27 10:06:31;;;;;;;3.22;1.55;;;;;;;32.50;44.92;100240.75;4988905;28;20111;-68
2023/06/27 10:08:57;;;;;;;1.83;1.15;;;;;;;32.85;45.43;100258.28;4971457;28;20042;-68
2023/06/27 10:11:23;;;;;;;3.70;1.75;;;;;;;33.24;45.53;100243.69;4985865;28;20085;-68
2023/06/27 10:13:49;;;;;;;4.20;2.08;;;;;;;33.10;44.71;100190.66;4987633;28;20042;-67
2023/06/27 10:16:17;;;;;;;3.88;2.28;;;;;;;33.36;44.03;100228.88;4982917;28;20061;-67
2023/06/27 10:18:43;;;;;;;2.85;1.50;;;;;;;32.97;43.12;100239.91;4966892;28;20125;-67
2023/06/27 10:21:10;;;;;;;6.55;1.40;;;;;;;31.74;44.06;100241.41;4981474;28;20053;-68
2023/06/27 10:23:37;;;;;;;3.35;1.83;;;;;;;31.15;45.13;100244.97;4986137;28;20049;-67
2023/06/27 10:26:03;;;;;;;8.65;1.75;;;;;;;31.49;45.18;100239.22;4987895;28;20034;-69
2023/06/27 10:28:30;;;;;;;2.13;1.08;;;;;;;30.57;46.48;100226.53;4987280;28;20064;-69
2023/06/27 10:30:56;;;;;;;2.40;1.60;;;;;;;31.92;46.93;100172.88;4987329;28;20046;-67
2023/06/27 10:33:35;;;;;;;3.10;2.08;;;;;;;32.08;47.32;100172.34;4988337;28;20667;-67
2023/06/27 10:36:04;;;;;;;2.85;1.88;;;;;;;31.66;48.08;100227.72;4981458;28;20066;-67
2023/06/27 10:38:35;;;;;;;3.90;1.88;;;;;;;31.30;48.89;100226.44;4987309;28;20118;-67
2023/06/27 10:41:06;;;;;;;4.75;1.42;;;;;;;32.64;47.05;100227.69;4985681;28;20072;-67
2023/06/27 10:43:48;;;;;;;3.60;2.05;;;;;;;32.52;46.58;100222.47;4978437;28;20158;-68
2023/06/27 10:46:17;;;;;;;2.33;1.55;;;;;;;32.53;44.75;100177.13;4981483;28;20427;-68
2023/06/27 10:49:04;;;;;;;3.70;2.05;;;;;;;33.72;43.90;100223.53;4987115;28;20493;-68
2023/06/27 10:51:41;;;;;;;2.20;1.67;;;;;;;33.64;43.35;100227.84;4984829;28;20506;-67
2023/06/27 10:54:12;;;;;;;1.02;0.70;;;;;;;33.03;44.97;100212.09;4988258;28;20504;-68
2023/06/27 10:56:53;;;;;;;2.72;1.77;;;;;;;31.45;46.15;100194.44;4983049;28;20145;-67
2023/06/27 10:59:21;;;;;;;2.38;1.75;;;;;;;31.47;46.45;100133.63;4984419;28;20121;-68
2023/06/27 11:01:52;;;;;;;3.28;2.05;;;;;;;30.92;47.24;100209.06;4987504;28;20030;-68
2023/06/27 11:04:26;;;;;;;3.22;1.88;;;;;;;31.53;47.38;100194.56;4988021;28;20550;-68
2023/06/27 11:07:00;;;;;;;2.80;2.00;;;;;;;31.67;44.69;100118.19;4985732;28;20042;-68
2023/06/27 11:09:28;;;;;;;2.42;1.65;;;;;;;30.64;46.87;100188.94;4986928;28;20046;-68
2023/06/27 11:12:11;;;;;;;3.63;1.60;;;;;;;32.02;46.64;100126.75;4980405;28;20470;-68
2023/06/27 11:14:44;;;;;;;4.85;1.95;;;;;;;32.01;46.04;100176.59;4987803;28;20053;-67
2023/06/27 11:17:11;;;;;;;3.55;1.77;;;;;;;30.54;46.68;100009.28;4982350;28;20548;-67